Date,TemperatureHighF,TemperatureAvgF,TemperatureLowF,DewpointHighF,DewpointAvgF,DewpointLowF,HumidityHigh,HumidityAvg,HumidityLow,PressureMaxIn,PressureMinIn,WindSpeedMaxMPH,WindSpeedAvgMPH,GustSpeedMaxMPH,PrecipitationSumIn
2013-3-1,41.2,24.4,8.4,16.5,8.7,-2.3,64,52,29,30.00,29.89,6,2,10,0.00
2013-3-2,40.3,17.1,1.8,8.5,-2.9,-9.5,65,44,19,30.02,29.90,6,1,10,0.00
2013-3-3,47.3,18.9,-1.8,10.4,-2.5,-14.6,61,42,19,29.91,29.80,3,0,6,0.00
2013-3-4,34.0,23.0,9.3,18.4,8.9,-2.8,63,54,42,29.85,29.76,6,2,12,0.00
2013-3-5,30.7,26.5,22.6,22.5,18.2,14.2,78,70,61,29.89,29.67,4,1,11,0.00
2013-3-6,35.6,24.9,7.0,20.0,14.1,-3.4,75,63,50,30.07,29.89,5,1,9,0.00
2013-3-7,51.1,21.6,-1.1,19.0,5.4,-12.2,71,52,24,30.15,30.06,3,0,5,0.00
2013-3-8,48.7,28.0,8.1,22.4,13.7,-2.2,71,56,34,30.17,29.97,6,2,9,0.00
2013-3-9,41.9,36.0,31.8,32.6,27.0,18.5,85,70,56,29.98,29.52,8,3,11,0.01
2013-3-10,39.6,35.5,32.5,36.6,31.3,28.3,89,85,80,29.58,29.41,6,2,11,0.00
2013-3-11,34.3,31.5,27.3,28.8,26.4,19.2,86,81,71,29.53,29.34,4,0,8,0.00
2013-3-12,37.6,28.1,22.1,19.8,16.0,9.5,74,61,43,29.80,29.52,6,1,11,0.00
2013-3-13,43.2,25.1,16.2,11.1,4.8,-1.6,65,45,20,30.06,29.80,8,2,11,0.00
2013-3-14,46.0,25.4,9.9,25.3,14.0,-0.5,74,62,42,30.04,29.78,7,1,9,0.00
2013-3-15,38.1,31.0,24.3,30.6,24.4,17.4,82,76,65,29.78,29.57,4,0,7,0.00
2013-3-16,38.8,26.0,19.6,21.7,13.2,7.4,77,59,34,29.90,29.58,6,1,12,0.00
2013-3-17,39.0,22.9,8.1,11.6,4.5,-5.3,62,46,25,30.02,29.75,6,3,10,0.00
2013-3-18,36.5,22.8,11.1,26.4,13.0,1.3,76,66,52,29.75,29.32,2,0,4,0.00
2013-3-19,38.3,20.9,11.1,5.4,-1.1,-8.0,57,40,20,29.80,29.45,9,2,17,0.00
2013-3-20,29.7,14.7,4.1,-2.1,-9.1,-14.8,51,34,20,29.83,29.77,9,4,16,0.00
2013-3-21,41.4,16.6,-2.4,6.1,-4.6,-15.0,60,41,19,29.82,29.75,6,2,11,0.00
2013-3-22,9.3,7.1,5.2,-4.0,-5.4,-6.6,57,56,53,29.80,29.79,0,0,0,0.00
2013-3-31,47.8,38.1,30.4,36.6,27.8,12.0,93,68,39,29.70,29.50,14,3,14,0.00